Time;durP1;ratioP1;P1;durP2;ratioP2;P2;SDS_P1;SDS_P2;PMS_P1;PMS_P2;Temp;Humidity;BMP_temperature;BMP_pressure;BME280_temperature;BME280_humidity;BME280_pressure;Samples;Min_cycle;Max_cycle;Signal;HPM_P1;HPM_P2
2022/06/14 00:03:13;;;;;;;9.93;1.77;;;10.80;99.90;;;;;;4987032;28;20396;-58
2022/06/14 00:05:38;;;;;;;7.07;1.67;;;10.80;99.90;;;;;;4989215;28;20023;-56
2022/06/14 00:08:05;;;;;;;8.27;1.33;;;10.80;99.90;;;;;;4986413;28;20036;-59
2022/06/14 00:10:30;;;;;;;8.13;1.88;;;10.70;99.90;;;;;;4985986;28;20233;-57
2022/06/14 00:12:56;;;;;;;3.85;1.30;;;10.70;99.90;;;;;;4977100;28;20050;-53
2022/06/14 00:15:22;;;;;;;6.22;1.48;;;10.60;99.90;;;;;;4981326;28;20041;-55
2022/06/14 00:17:47;;;;;;;6.78;2.00;;;10.50;99.90;;;;;;4992483;28;20041;-55
2022/06/14 00:20:13;;;;;;;10.65;1.85;;;10.50;99.90;;;;;;4990636;28;20034;-56
2022/06/14 00:22:40;;;;;;;8.65;1.80;;;10.40;99.90;;;;;;5001970;28;20030;-56
2022/06/14 00:25:06;;;;;;;6.85;1.65;;;10.40;99.90;;;;;;4998642;28;20030;-56
2022/06/14 00:27:32;;;;;;;6.50;1.85;;;10.40;99.90;;;;;;4989850;28;20056;-57
2022/06/14 00:29:57;;;;;;;6.95;1.42;;;10.30;99.90;;;;;;4992171;28;20058;-53
2022/06/14 00:32:23;;;;;;;7.88;1.60;;;10.30;99.90;;;;;;4989659;28;20663;-56
2022/06/14 00:34:48;;;;;;;11.15;1.90;;;10.30;99.90;;;;;;4987410;28;20037;-57
2022/06/14 00:37:17;;;;;;;9.73;1.90;;;10.30;99.90;;;;;;4982686;28;20056;-53
2022/06/14 00:39:44;;;;;;;8.10;2.90;;;10.20;99.90;;;;;;4980829;28;20404;-54
2022/06/14 00:42:18;;;;;;;7.88;2.35;;;10.20;99.90;;;;;;4978635;28;20026;-51
2022/06/14 00:45:00;;;;;;;;;;;10.20;99.90;;;;;;4988700;28;20112;-57
2022/06/14 00:47:25;;;;;;;7.45;1.80;;;10.20;99.90;;;;;;4982807;28;19938;-55
2022/06/14 00:49:56;;;;;;;7.65;1.77;;;10.10;99.90;;;;;;4982639;28;20038;-58
2022/06/14 00:52:27;;;;;;;5.07;1.58;;;10.10;99.90;;;;;;4978687;28;20508;-54
2022/06/14 00:54:57;;;;;;;10.35;1.73;;;10.10;99.90;;;;;;4975598;28;20454;-54
2022/06/14 00:57:26;;;;;;;5.20;1.52;;;10.00;99.90;;;;;;4984068;28;20084;-50
2022/06/14 01:00:10;;;;;;;9.68;1.83;;;10.00;99.90;;;;;;4978440;28;20026;-56
2022/06/14 01:02:44;;;;;;;10.10;1.80;;;10.00;99.90;;;;;;4984559;28;20034;-58
2022/06/14 01:05:16;;;;;;;3.78;1.38;;;10.00;99.90;;;;;;4981152;28;20041;-57
2022/06/14 01:07:47;;;;;;;6.50;1.58;;;10.00;99.90;;;;;;4988787;28;20033;-57
2022/06/14 01:10:20;;;;;;;3.88;1.30;;;10.00;99.90;;;;;;4985936;28;20077;-57
2022/06/14 01:12:53;;;;;;;5.68;1.67;;;10.00;99.90;;;;;;4966213;28;20039;-58
2022/06/14 01:15:23;;;;;;;9.10;1.83;;;9.90;99.90;;;;;;4977797;28;20488;-54
2022/06/14 01:17:58;;;;;;;5.53;1.60;;;9.80;99.90;;;;;;4983015;28;20046;-55
2022/06/14 01:20:24;;;;;;;7.30;1.83;;;9.80;99.90;;;;;;4977147;28;20531;-56
2022/06/14 01:22:51;;;;;;;6.97;1.63;;;9.80;99.90;;;;;;4982783;28;20072;-57
2022/06/14 01:25:18;;;;;;;6.55;1.65;;;9.80;99.90;;;;;;4985514;28;20062;-58
2022/06/14 01:27:44;;;;;;;6.95;1.60;;;9.70;99.90;;;;;;4980598;28;20488;-49
2022/06/14 01:30:18;;;;;;;3.65;1.15;;;9.70;99.90;;;;;;4983472;28;20026;-55
2022/06/14 01:32:50;;;;;;;3.42;1.58;;;9.60;99.90;;;;;;4984635;28;20622;-58
2022/06/14 01:35:19;;;;;;;6.22;1.48;;;9.60;99.90;;;;;;4978498;28;22140;-56
2022/06/14 01:37:47;;;;;;;5.80;1.80;;;9.60;99.90;;;;;;4978406;28;20453;-51
2022/06/14 01:40:14;;;;;;;8.57;1.77;;;9.60;99.90;;;;;;4980265;28;20034;-58
2022/06/14 01:42:42;;;;;;;3.67;1.65;;;9.50;99.90;;;;;;4985641;28;20105;-58
2022/06/14 01:45:33;;;;;;;10.88;1.67;;;9.60;99.90;;;;;;4975792;28;20027;-58
2022/06/14 01:48:17;;;;;;;6.88;1.90;;;9.50;99.90;;;;;;4981941;28;20034;-56
2022/06/14 01:54:12;;;;;;;6.65;2.05;;;9.40;99.90;;;;;;4987439;28;20056;-51
2022/06/14 01:56:52;;;;;;;6.70;1.65;;;9.40;99.90;;;;;;4986332;28;20076;-55
2022/06/14 01:59:40;;;;;;;6.45;1.70;;;9.30;99.90;;;;;;4986480;28;20168;-55
2022/06/14 02:02:09;;;;;;;12.25;1.88;;;9.30;99.90;;;;;;4980452;28;20065;-56
2022/06/14 02:04:45;;;;;;;6.07;2.20;;;9.20;99.90;;;;;;4978340;28;20050;-56
2022/06/14 02:07:38;;;;;;;5.45;1.92;;;9.20;99.90;;;;;;4988455;28;20049;-53
2022/06/14 02:10:08;;;;;;;11.70;3.15;;;9.10;99.90;;;;;;4990248;28;20515;-57
2022/06/14 02:12:42;;;;;;;5.18;2.30;;;9.10;99.90;;;;;;4990550;28;20452;-57
2022/06/14 02:15:25;;;;;;;7.10;2.85;;;9.00;99.90;;;;;;4963207;28;20038;-57
2022/06/14 02:18:04;;;;;;;6.07;2.15;;;9.00;99.90;;;;;;4991280;28;20041;-56
2022/06/14 02:20:37;;;;;;;12.50;2.60;;;9.00;99.90;;;;;;4991165;28;20030;-55
2022/06/14 02:23:08;;;;;;;4.43;2.45;;;9.00;99.90;;;;;;4989568;28;20025;-55
2022/06/14 02:25:49;;;;;;;7.20;2.83;;;8.90;99.90;;;;;;4991363;28;20030;-53
2022/06/14 02:28:28;;;;;;;7.32;2.03;;;8.90;99.90;;;;;;4993015;28;20072;-56
2022/06/14 02:31:03;;;;;;;6.65;2.47;;;8.90;99.90;;;;;;4981382;28;20026;-56
2022/06/14 02:33:42;;;;;;;6.22;2.05;;;9.00;99.90;;;;;;4988414;28;20096;-56
2022/06/14 02:36:19;;;;;;;11.07;2.28;;;9.00;99.90;;;;;;4986605;28;20388;-58
2022/06/14 02:38:46;;;;;;;8.85;2.10;;;8.90;99.90;;;;;;4989144;28;20026;-55
2022/06/14 02:41:21;;;;;;;5.38;1.73;;;8.90;99.90;;;;;;4991971;28;20046;-52
2022/06/14 02:44:10;;;;;;;4.93;2.35;;;8.90;99.90;;;;;;4995702;28;20037;-48
2022/06/14 02:46:44;;;;;;;8.55;2.08;;;8.90;99.90;;;;;;4993627;28;20503;-56
2022/06/14 02:49:44;;;;;;;6.70;2.25;;;8.90;99.90;;;;;;4982929;28;20030;-53
2022/06/14 02:53:03;;;;;;;4.63;2.33;;;8.80;99.90;;;;;;4990146;28;20039;-53
2022/06/14 02:55:53;;;;;;;7.65;2.70;;;8.70;99.90;;;;;;4947592;28;20038;-55
2022/06/14 02:58:28;;;;;;;6.43;3.17;;;8.70;99.90;;;;;;4989888;28;20031;-56
2022/06/14 03:00:58;;;;;;;7.28;2.28;;;8.70;99.90;;;;;;4989707;28;20392;-52
2022/06/14 03:03:31;;;;;;;9.05;2.42;;;8.70;99.90;;;;;;4987611;28;20023;-57
2022/06/14 03:06:06;;;;;;;10.40;2.83;;;8.60;99.90;;;;;;4990039;28;20030;-55
2022/06/14 03:08:43;;;;;;;5.32;2.35;;;8.60;99.90;;;;;;4992077;28;20037;-54
2022/06/14 03:11:15;;;;;;;4.43;2.17;;;8.60;99.90;;;;;;4996520;28;20030;-54
2022/06/14 03:13:54;;;;;;;7.10;2.30;;;8.60;99.90;;;;;;4981574;28;20551;-53
2022/06/14 03:16:50;;;;;;;8.07;2.38;;;8.60;99.90;;;;;;4990110;28;20027;-55
2022/06/14 03:19:21;;;;;;;5.43;2.08;;;8.60;99.90;;;;;;4987530;28;20034;-56
2022/06/14 03:21:55;;;;;;;11.93;3.05;;;8.70;99.90;;;;;;4990211;28;20022;-51
2022/06/14 03:24:36;;;;;;;5.38;2.15;;;8.70;99.90;;;;;;4989654;28;20422;-55
2022/06/14 03:27:20;;;;;;;7.00;2.50;;;8.70;99.90;;;;;;4989688;28;20045;-58
2022/06/14 03:30:00;;;;;;;6.43;2.27;;;8.70;99.90;;;;;;4988087;28;20080;-52
2022/06/14 03:32:44;;;;;;;9.90;2.70;;;8.70;99.90;;;;;;4987584;28;20058;-57
2022/06/14 03:35:25;;;;;;;8.95;2.10;;;8.60;99.90;;;;;;4988225;28;20407;-53
2022/06/14 03:37:52;;;;;;;7.70;2.42;;;8.60;99.90;;;;;;4984931;28;20508;-54
2022/06/14 03:40:20;;;;;;;5.68;2.90;;;8.60;99.90;;;;;;4989053;28;20401;-57
2022/06/14 03:42:45;;;;;;;10.48;3.60;;;8.60;99.90;;;;;;4988839;28;20035;-58
2022/06/14 03:45:16;;;;;;;4.93;2.15;;;8.50;99.90;;;;;;4989317;28;20523;-56
2022/06/14 03:47:42;;;;;;;8.10;2.25;;;8.60;99.90;;;;;;4985474;28;20054;-55
2022/06/14 03:50:13;;;;;;;4.88;2.45;;;8.60;99.90;;;;;;4983890;28;21021;-56
2022/06/14 03:52:54;;;;;;;6.82;2.45;;;8.60;99.90;;;;;;4986423;28;20535;-52
2022/06/14 03:55:44;;;;;;;7.72;3.08;;;8.70;99.90;;;;;;4991274;28;20022;-58
2022/06/14 03:58:52;;;;;;;5.53;2.25;;;8.70;99.90;;;;;;4992845;28;20034;-57
2022/06/14 04:01:26;;;;;;;6.85;2.88;;;8.70;99.90;;;;;;4990184;28;20054;-57
2022/06/14 04:04:21;;;;;;;5.88;2.40;;;8.70;99.90;;;;;;4991381;28;20033;-58
2022/06/14 04:07:13;;;;;;;7.70;2.53;;;8.80;99.90;;;;;;4989463;28;20019;-57
2022/06/14 04:09:49;;;;;;;5.43;2.25;;;8.80;99.90;;;;;;4993249;28;21702;-56
2022/06/14 04:13:02;;;;;;;6.80;1.88;;;8.80;99.90;;;;;;4992906;28;20113;-53
2022/06/14 04:15:48;;;;;;;5.78;1.90;;;8.70;99.90;;;;;;4984650;28;20809;-55
2022/06/14 04:18:36;;;;;;;5.10;2.65;;;8.80;99.90;;;;;;5011507;28;20041;-56
2022/06/14 04:21:19;;;;;;;9.80;2.22;;;8.90;99.90;;;;;;5012627;28;20030;-56
2022/06/14 04:23:57;;;;;;;8.82;2.22;;;8.90;99.90;;;;;;5010117;28;20052;-51
2022/06/14 04:26:43;;;;;;;5.57;1.90;;;9.00;99.90;;;;;;5010889;28;20072;-59
2022/06/14 04:29:32;;;;;;;4.80;2.17;;;9.10;99.90;;;;;;5008057;28;20049;-58
2022/06/14 04:32:08;;;;;;;5.60;1.98;;;9.10;99.90;;;;;;5008371;28;20026;-56
2022/06/14 04:34:58;;;;;;;5.28;2.63;;;9.70;99.90;;;;;;5007902;28;20036;-55
2022/06/14 04:37:26;;;;;;;7.72;1.80;;;10.70;99.90;;;;;;5005943;28;20033;-58
2022/06/14 04:40:01;;;;;;;5.47;1.67;;;12.10;99.90;;;;;;5005606;28;20396;-59
2022/06/14 04:42:39;;;;;;;5.68;1.60;;;13.40;99.90;;;;;;5010040;28;20044;-58
2022/06/14 04:45:48;;;;;;;6.75;2.45;;;14.50;99.90;;;;;;5010652;28;20038;-58
2022/06/14 04:48:23;;;;;;;5.07;2.10;;;15.60;98.50;;;;;;4990803;28;20037;-54
2022/06/14 04:50:58;;;;;;;9.10;1.88;;;16.10;96.50;;;;;;4994094;28;20770;-56
2022/06/14 04:53:31;;;;;;;3.22;1.90;;;16.50;95.50;;;;;;5005382;28;20492;-59
2022/06/14 04:56:02;;;;;;;6.03;1.70;;;17.50;93.70;;;;;;5012619;28;20079;-58
2022/06/14 04:58:33;;;;;;;5.68;1.65;;;18.30;91.60;;;;;;5009914;28;20685;-54
2022/06/14 05:01:07;;;;;;;5.85;1.70;;;18.60;90.50;;;;;;5011635;28;20022;-59
2022/06/14 05:03:38;;;;;;;;;;;19.00;88.00;;;;;;5010879;28;20022;-59
2022/06/14 05:06:13;;;;;;;4.63;1.58;;;19.60;87.70;;;;;;5010691;28;20503;-56
2022/06/14 05:08:46;;;;;;;5.60;2.10;;;20.30;83.70;;;;;;5009136;28;20029;-60
2022/06/14 05:11:14;;;;;;;7.03;2.28;;;20.80;80.20;;;;;;5010122;28;20113;-57
2022/06/14 05:14:01;;;;;;;7.10;1.80;;;20.80;80.10;;;;;;4995308;28;20499;-57
2022/06/14 05:16:38;;;;;;;8.77;2.08;;;21.60;78.60;;;;;;5016350;28;20045;-56
2022/06/14 05:19:18;;;;;;;5.30;2.00;;;22.80;75.80;;;;;;5010335;28;20030;-57
2022/06/14 05:22:08;;;;;;;4.13;1.70;;;24.20;71.20;;;;;;5009160;28;20040;-55
2022/06/14 05:24:35;;;;;;;4.50;1.58;;;24.90;68.50;;;;;;5010504;28;20014;-58
2022/06/14 05:27:28;;;;;;;6.90;1.80;;;24.70;68.30;;;;;;5008865;28;20117;-59
2022/06/14 05:30:13;;;;;;;;;;;24.90;66.80;;;;;;5016161;28;20491;-52
2022/06/14 05:32:50;;;;;;;8.30;2.10;;;25.20;65.70;;;;;;5004261;28;20590;-55
2022/06/14 05:35:35;;;;;;;5.93;2.20;;;25.90;64.50;;;;;;5007482;28;20064;-58
2022/06/14 05:38:19;;;;;;;10.43;2.08;;;25.90;63.40;;;;;;5002314;28;20034;-59
2022/06/14 05:40:56;;;;;;;7.82;2.45;;;25.50;64.10;;;;;;5009013;28;20491;-55
2022/06/14 05:43:33;;;;;;;7.40;2.67;;;25.00;65.00;;;;;;5008661;28;20049;-56
2022/06/14 05:46:10;;;;;;;6.57;2.22;;;26.00;63.20;;;;;;5010421;28;20065;-58
2022/06/14 05:48:56;;;;;;;6.28;2.03;;;26.30;63.10;;;;;;5012771;28;20029;-57
2022/06/14 05:51:29;;;;;;;9.60;1.95;;;26.50;61.00;;;;;;5010804;28;20038;-57
2022/06/14 05:54:05;;;;;;;6.82;2.33;;;26.40;61.50;;;;;;5008639;28;20048;-57
2022/06/14 05:56:37;;;;;;;6.80;2.50;;;26.50;60.60;;;;;;5004824;28;20151;-56
2022/06/14 05:59:13;;;;;;;3.45;1.60;;;25.70;61.50;;;;;;5011308;28;20026;-57
2022/06/14 06:01:45;;;;;;;6.45;2.05;;;26.30;61.40;;;;;;5010006;28;20050;-56
2022/06/14 06:04:16;;;;;;;;;;;26.90;61.20;;;;;;5011769;28;20017;-56
2022/06/14 06:06:45;;;;;;;4.95;1.48;;;27.50;59.60;;;;;;5008777;28;20003;-57
2022/06/14 06:09:15;;;;;;;6.53;2.13;;;27.30;59.40;;;;;;5010627;28;20040;-56
2022/06/14 06:11:46;;;;;;;7.60;2.25;;;27.00;60.20;;;;;;5009003;28;20026;-57
2022/06/14 06:14:22;;;;;;;6.40;1.85;;;27.80;59.40;;;;;;4990264;28;20069;-58
2022/06/14 06:17:08;;;;;;;6.75;2.15;;;27.90;59.10;;;;;;4996517;28;20476;-60
2022/06/14 06:19:39;;;;;;;7.05;2.20;;;28.20;59.20;;;;;;4990111;28;20088;-58
2022/06/14 06:22:15;;;;;;;5.45;2.17;;;28.60;57.90;;;;;;4993504;28;20570;-58
2022/06/14 06:24:52;;;;;;;5.93;2.22;;;28.60;57.90;;;;;;4992846;28;20408;-57
2022/06/14 06:27:28;;;;;;;5.82;2.47;;;28.30;58.50;;;;;;4989671;28;20030;-56
2022/06/14 06:30:02;;;;;;;6.50;2.50;;;29.30;57.00;;;;;;4994699;28;20406;-58
2022/06/14 06:32:31;;;;;;;4.63;1.92;;;29.70;56.70;;;;;;4994009;28;20034;-57
2022/06/14 06:34:58;;;;;;;7.15;2.08;;;29.60;56.60;;;;;;5000484;28;20026;-57
2022/06/14 06:37:48;;;;;;;5.40;1.90;;;28.10;58.00;;;;;;4993058;28;20100;-57
2022/06/14 06:40:21;;;;;;;5.38;1.83;;;28.80;58.80;;;;;;4989459;28;20026;-59
2022/06/14 06:42:58;;;;;;;7.63;1.95;;;29.90;57.30;;;;;;4994659;28;20022;-61
2022/06/14 06:45:34;;;;;;;6.97;2.05;;;30.00;56.10;;;;;;4997498;28;20405;-61
2022/06/14 06:48:31;;;;;;;7.72;2.67;;;30.00;56.10;;;;;;4988080;28;20451;-60
2022/06/14 06:51:02;;;;;;;5.60;2.20;;;29.90;55.90;;;;;;4990215;28;21877;-55
2022/06/14 06:53:37;;;;;;;8.77;2.35;;;28.80;55.90;;;;;;4990336;28;20053;-57
2022/06/14 06:56:12;;;;;;;8.15;3.35;;;28.70;57.90;;;;;;4997610;28;20030;-56
2022/06/14 06:58:41;;;;;;;7.22;2.90;;;28.40;57.60;;;;;;5001807;28;20030;-58
2022/06/14 07:01:12;;;;;;;4.03;2.22;;;28.20;56.60;;;;;;4989647;28;20035;-58
2022/06/14 07:03:48;;;;;;;7.72;2.50;;;28.20;57.20;;;;;;4983270;28;20484;-58
2022/06/14 07:06:37;;;;;;;5.35;2.53;;;28.90;57.00;;;;;;4985318;28;20117;-57
2022/06/14 07:09:10;;;;;;;6.15;2.78;;;29.10;56.50;;;;;;4985223;28;20030;-57
2022/06/14 07:11:44;;;;;;;10.95;3.45;;;28.60;55.90;;;;;;4983474;28;20030;-58
2022/06/14 07:14:31;;;;;;;7.60;2.92;;;28.50;55.60;;;;;;4974666;28;20144;-57
2022/06/14 07:17:23;;;;;;;5.40;2.40;;;28.70;56.50;;;;;;5006314;28;20124;-56
2022/06/14 07:20:01;;;;;;;7.87;2.90;;;29.00;56.60;;;;;;5007529;28;20044;-53
2022/06/14 07:22:37;;;;;;;10.48;3.25;;;29.10;56.60;;;;;;5006625;28;20677;-59
2022/06/14 07:25:35;;;;;;;10.32;2.95;;;30.00;54.00;;;;;;5002983;28;20075;-58
2022/06/14 07:28:15;;;;;;;7.30;3.20;;;29.70;54.00;;;;;;5002213;28;20192;-60
2022/06/14 07:30:47;;;;;;;9.65;3.28;;;29.40;55.00;;;;;;5005998;28;20029;-59
2022/06/14 07:33:14;;;;;;;10.35;2.70;;;29.20;54.20;;;;;;5006393;28;20026;-56
2022/06/14 07:35:49;;;;;;;9.10;3.03;;;29.40;53.70;;;;;;5008368;28;20120;-54
2022/06/14 07:38:29;;;;;;;8.45;2.78;;;29.90;54.00;;;;;;5006173;28;20038;-60
2022/06/14 07:41:09;;;;;;;7.95;2.88;;;30.10;54.50;;;;;;5009315;28;20030;-61
2022/06/14 07:44:06;;;;;;;14.02;3.53;;;30.70;52.50;;;;;;5007731;28;20137;-58
2022/06/14 07:46:50;;;;;;;9.80;3.38;;;30.90;51.90;;;;;;5006224;28;20034;-55
2022/06/14 07:49:25;;;;;;;11.75;4.03;;;29.40;51.10;;;;;;5008679;28;20042;-57
2022/06/14 07:51:55;;;;;;;12.05;3.17;;;29.30;52.80;;;;;;5006413;28;20120;-54
2022/06/14 07:54:28;;;;;;;10.45;2.65;;;28.80;54.60;;;;;;5006506;28;20026;-59
2022/06/14 07:57:01;;;;;;;9.25;2.78;;;29.20;52.90;;;;;;5007039;28;20406;-58
2022/06/14 07:59:41;;;;;;;11.15;2.92;;;29.60;53.80;;;;;;5007016;28;20030;-60
2022/06/14 08:02:37;;;;;;;9.27;2.65;;;29.90;51.40;;;;;;5006641;28;20080;-60
2022/06/14 08:05:13;;;;;;;9.57;2.55;;;29.40;51.00;;;;;;4998563;28;20073;-60
2022/06/14 08:07:40;;;;;;;9.55;2.45;;;29.60;51.30;;;;;;5004971;28;20536;-60
2022/06/14 08:10:11;;;;;;;8.35;2.47;;;30.20;50.10;;;;;;5005779;28;20034;-58
2022/06/14 08:13:09;;;;;;;8.63;2.50;;;29.50;52.60;;;;;;5006674;28;20026;-58
2022/06/14 08:15:43;;;;;;;9.88;2.78;;;29.10;53.40;;;;;;4985289;28;20049;-59
2022/06/14 08:18:35;;;;;;;6.55;2.40;;;29.10;51.40;;;;;;5002000;28;20034;-60
2022/06/14 08:21:20;;;;;;;12.57;2.65;;;29.60;51.70;;;;;;5005886;28;20026;-55
2022/06/14 08:23:59;;;;;;;8.00;3.22;;;29.80;50.70;;;;;;5007138;28;20022;-59
2022/06/14 08:26:29;;;;;;;8.43;3.20;;;30.00;51.60;;;;;;5006167;28;20025;-58
2022/06/14 08:29:16;;;;;;;10.18;2.67;;;30.10;49.90;;;;;;5006765;28;20395;-54
2022/06/14 08:31:54;;;;;;;10.02;3.10;;;30.10;50.40;;;;;;5006518;28;20018;-57
2022/06/14 08:34:32;;;;;;;7.90;2.80;;;28.90;50.50;;;;;;5005288;28;20037;-59
2022/06/14 08:37:16;;;;;;;8.85;2.58;;;28.70;51.50;;;;;;5007373;28;20034;-59
2022/06/14 08:40:23;;;;;;;9.48;2.60;;;28.70;51.50;;;;;;5008635;28;20119;-59
2022/06/14 08:42:53;;;;;;;9.95;2.33;;;28.70;52.20;;;;;;4985252;28;20052;-57
2022/06/14 08:45:35;;;;;;;8.95;2.70;;;29.20;50.70;;;;;;5012418;28;20022;-58
2022/06/14 08:48:31;;;;;;;10.73;3.20;;;29.60;50.80;;;;;;5005408;28;20030;-59
2022/06/14 08:51:06;;;;;;;11.73;3.50;;;30.30;50.70;;;;;;5012047;28;20057;-59
2022/06/14 08:53:56;;;;;;;10.43;2.67;;;30.20;49.40;;;;;;5011855;28;20454;-55
2022/06/14 08:56:50;;;;;;;9.73;3.13;;;30.40;51.40;;;;;;5009576;28;20571;-59
2022/06/14 08:59:33;;;;;;;12.52;4.10;;;30.10;48.50;;;;;;5012121;28;20029;-58
2022/06/14 09:02:11;;;;;;;9.10;3.15;;;29.30;49.30;;;;;;5013781;28;20034;-59
2022/06/14 09:05:07;;;;;;;5.95;2.53;;;29.90;48.80;;;;;;5015200;28;20026;-57
2022/06/14 09:07:57;;;;;;;10.15;2.75;;;30.30;48.70;;;;;;5010597;28;20026;-59
2022/06/14 09:10:44;;;;;;;6.30;2.70;;;30.50;51.10;;;;;;5008809;28;20045;-61
2022/06/14 09:13:18;;;;;;;8.40;2.65;;;30.50;48.90;;;;;;5010849;28;20040;-61
2022/06/14 09:16:21;;;;;;;8.65;2.97;;;29.00;51.50;;;;;;4994736;28;20041;-60
2022/06/14 09:19:12;;;;;;;6.35;2.40;;;29.70;51.30;;;;;;5010244;28;20033;-60
2022/06/14 09:22:11;;;;;;;10.65;3.08;;;29.40;51.30;;;;;;5012030;28;20398;-60
2022/06/14 09:25:27;;;;;;;8.18;2.58;;;29.50;51.50;;;;;;5010143;28;20072;-59
2022/06/14 09:28:21;;;;;;;8.75;2.72;;;30.00;49.70;;;;;;5008647;28;20030;-54
2022/06/14 09:31:16;;;;;;;7.25;2.60;;;29.20;49.60;;;;;;5008850;28;20026;-57
2022/06/14 09:34:26;;;;;;;10.45;2.55;;;29.60;48.20;;;;;;5010088;28;20503;-59
2022/06/14 09:37:18;;;;;;;7.63;2.22;;;29.80;48.80;;;;;;5008489;28;20416;-60
2022/06/14 09:40:20;;;;;;;9.25;2.47;;;29.80;48.90;;;;;;4995835;28;20088;-57
2022/06/14 09:43:10;;;;;;;8.40;2.92;;;28.80;50.20;;;;;;5008171;28;20108;-61
2022/06/14 09:45:53;;;;;;;11.50;2.92;;;28.80;50.30;;;;;;5010794;28;20108;-61
2022/06/14 09:48:39;;;;;;;6.30;2.33;;;28.90;51.20;;;;;;5008699;28;20071;-59
2022/06/14 09:51:47;;;;;;;8.57;2.53;;;28.60;50.80;;;;;;5009427;28;20026;-59
2022/06/14 09:54:50;;;;;;;13.85;3.17;;;29.00;52.50;;;;;;5010672;28;20037;-61
2022/06/14 09:57:28;;;;;;;9.57;2.53;;;29.40;48.90;;;;;;5007415;28;20030;-59
2022/06/14 10:00:21;;;;;;;9.75;2.45;;;29.70;48.80;;;;;;5004306;28;20030;-55
2022/06/14 10:03:29;;;;;;;9.07;2.58;;;29.50;48.20;;;;;;5004536;28;20045;-59
2022/06/14 10:06:01;;;;;;;13.63;3.42;;;29.20;48.20;;;;;;4997769;28;20050;-61
2022/06/14 10:08:45;;;;;;;9.07;1.95;;;29.00;49.20;;;;;;5008255;28;20073;-60
2022/06/14 10:11:48;;;;;;;8.45;2.10;;;28.50;51.10;;;;;;5011155;28;20084;-58
2022/06/14 10:14:19;;;;;;;6.63;2.30;;;28.10;53.00;;;;;;5013945;28;20209;-59
2022/06/14 10:17:01;;;;;;;9.70;2.30;;;28.00;52.20;;;;;;4980495;28;20291;-60
2022/06/14 10:19:32;;;;;;;10.38;2.78;;;27.40;49.40;;;;;;5013515;28;20037;-57
2022/06/14 10:22:13;;;;;;;8.43;2.35;;;26.90;51.60;;;;;;5017008;28;20032;-59
2022/06/14 10:28:36;;;;;;;7.22;2.75;;;26.30;54.50;;;;;;4998877;28;20140;-57
2022/06/14 10:31:07;;;;;;;10.50;3.22;;;26.50;57.50;;;;;;5004937;28;20029;-58
2022/06/14 10:33:57;;;;;;;6.53;2.30;;;25.40;54.10;;;;;;5003751;28;20026;-58
2022/06/14 10:36:56;;;;;;;11.32;2.78;;;25.60;55.10;;;;;;5007921;28;20037;-56
2022/06/14 10:39:52;;;;;;;7.05;2.20;;;25.10;53.60;;;;;;5008944;28;20033;-58
2022/06/14 10:42:29;;;;;;;5.05;1.73;;;25.10;56.80;;;;;;5008983;28;20030;-58
2022/06/14 10:45:23;;;;;;;8.00;2.78;;;24.70;57.20;;;;;;5006501;28;20030;-56
2022/06/14 10:48:01;;;;;;;8.75;2.20;;;24.20;55.00;;;;;;5009904;28;20026;-52
2022/06/14 10:51:04;;;;;;;8.00;2.20;;;24.50;57.30;;;;;;5012404;28;20118;-56
2022/06/14 10:53:42;;;;;;;12.02;2.28;;;24.50;56.10;;;;;;5013899;28;20626;-58
2022/06/14 10:56:32;;;;;;;8.70;2.28;;;24.70;57.10;;;;;;5005720;28;20076;-54
2022/06/14 10:59:06;;;;;;;7.40;2.65;;;24.20;56.80;;;;;;5005241;28;20105;-54
2022/06/14 11:02:09;;;;;;;10.32;3.25;;;24.00;56.80;;;;;;5007821;28;20033;-56
2022/06/14 11:04:54;;;;;;;8.13;1.77;;;24.20;56.80;;;;;;5007840;28;20028;-56
2022/06/14 11:07:39;;;;;;;9.75;3.28;;;24.40;55.60;;;;;;5008091;28;20025;-53
2022/06/14 11:10:32;;;;;;;10.10;2.47;;;24.70;57.10;;;;;;5010661;28;20044;-53
2022/06/14 11:13:33;;;;;;;11.45;2.88;;;24.70;56.20;;;;;;5008220;28;20496;-58
2022/06/14 11:16:15;;;;;;;10.18;2.92;;;24.50;55.60;;;;;;4961948;28;20062;-57
2022/06/14 11:19:10;;;;;;;7.53;2.22;;;24.50;56.40;;;;;;5001942;28;20038;-54
2022/06/14 11:21:55;;;;;;;7.35;2.42;;;24.30;57.30;;;;;;5005410;28;20404;-56
2022/06/14 11:24:34;;;;;;;11.05;2.90;;;24.40;56.00;;;;;;5007054;28;20026;-57
2022/06/14 11:27:07;;;;;;;12.57;3.05;;;24.20;55.70;;;;;;5003777;28;20026;-58
2022/06/14 11:29:41;;;;;;;9.40;2.42;;;24.20;58.00;;;;;;5005928;28;20029;-56
2022/06/14 11:32:18;;;;;;;11.15;2.25;;;24.20;58.40;;;;;;5007590;28;20029;-57
2022/06/14 11:35:00;;;;;;;4.50;2.10;;;24.20;57.20;;;;;;5002575;28;20072;-58
2022/06/14 11:38:09;;;;;;;6.45;1.95;;;24.20;59.70;;;;;;5005575;28;20044;-56
2022/06/14 11:40:42;;;;;;;5.82;2.05;;;23.90;57.20;;;;;;4993626;28;20480;-56
2022/06/14 11:43:22;;;;;;;5.63;1.87;;;23.80;57.20;;;;;;5001762;28;20084;-57
2022/06/14 11:46:40;;;;;;;6.35;2.35;;;23.80;58.80;;;;;;5007479;28;20061;-57
2022/06/14 11:49:37;;;;;;;14.25;2.63;;;24.10;58.50;;;;;;5003745;28;20053;-56
2022/06/14 11:52:26;;;;;;;12.27;2.58;;;24.20;58.90;;;;;;5008701;28;20037;-58
2022/06/14 11:55:13;;;;;;;6.65;2.35;;;24.10;57.90;;;;;;5004263;28;20030;-55
2022/06/14 11:58:00;;;;;;;5.57;2.15;;;23.90;59.50;;;;;;5005012;28;20029;-49
2022/06/14 12:00:42;;;;;;;9.85;2.42;;;24.10;59.40;;;;;;5005415;28;20476;-56
2022/06/14 12:03:36;;;;;;;8.40;2.50;;;24.10;58.00;;;;;;5009948;28;20033;-55
2022/06/14 12:06:49;;;;;;;9.25;2.45;;;24.00;58.50;;;;;;5007704;28;20049;-56
2022/06/14 12:09:40;;;;;;;9.68;2.53;;;24.10;59.30;;;;;;4987277;28;20591;-56
2022/06/14 12:12:41;;;;;;;6.25;2.03;;;24.10;60.20;;;;;;5005936;28;20078;-55
2022/06/14 12:15:11;;;;;;;6.85;2.00;;;23.90;58.20;;;;;;4987230;28;20133;-56
2022/06/14 12:17:55;;;;;;;8.23;2.30;;;23.70;56.70;;;;;;4989967;28;20069;-58
2022/06/14 12:20:22;;;;;;;5.57;2.40;;;23.70;58.40;;;;;;4989856;28;20037;-56
2022/06/14 12:23:09;;;;;;;10.15;2.05;;;23.50;57.90;;;;;;4993941;28;20546;-50
2022/06/14 12:28:34;;;;;;;10.63;2.35;;;23.30;59.10;;;;;;4990043;28;20069;-58
2022/06/14 12:31:11;;;;;;;8.15;3.05;;;23.30;58.70;;;;;;4990472;28;20042;-56
2022/06/14 12:33:48;;;;;;;12.30;2.30;;;23.30;58.20;;;;;;4985092;28;20062;-55
2022/06/14 12:36:18;;;;;;;6.97;2.58;;;23.20;58.30;;;;;;4994196;28;20111;-55
2022/06/14 12:38:47;;;;;;;8.63;2.22;;;23.20;57.90;;;;;;4988489;28;20022;-60
2022/06/14 12:41:31;;;;;;;9.80;2.45;;;23.20;57.70;;;;;;4992217;28;20510;-56
2022/06/14 12:44:02;;;;;;;;;;;22.90;58.10;;;;;;5000777;28;20920;-57
2022/06/14 12:46:33;;;;;;;5.00;2.28;;;23.10;57.30;;;;;;4991692;28;19909;-60
2022/06/14 12:49:08;;;;;;;9.13;2.40;;;22.90;56.90;;;;;;4997799;28;20033;-60
2022/06/14 12:51:55;;;;;;;6.75;1.88;;;22.80;57.30;;;;;;4986835;28;20092;-58
2022/06/14 12:54:37;;;;;;;7.65;2.10;;;22.90;58.20;;;;;;5001118;28;20038;-59
2022/06/14 12:57:06;;;;;;;6.47;2.58;;;22.90;58.90;;;;;;4992056;28;20649;-59
2022/06/14 12:59:54;;;;;;;5.57;2.83;;;23.00;58.00;;;;;;4993100;28;20454;-60
2022/06/14 13:02:48;;;;;;;11.70;2.90;;;23.10;59.10;;;;;;4995643;28;20030;-55
2022/06/14 13:05:24;;;;;;;7.30;1.90;;;23.30;58.10;;;;;;4993893;28;20748;-58
2022/06/14 13:08:11;;;;;;;6.82;2.08;;;23.30;58.50;;;;;;5000560;28;20034;-54
2022/06/14 13:10:37;;;;;;;7.03;2.00;;;23.40;58.30;;;;;;4994837;28;20030;-57
2022/06/14 13:13:05;;;;;;;8.73;1.63;;;23.50;57.90;;;;;;4994445;28;20034;-58
2022/06/14 13:15:42;;;;;;;5.45;1.40;;;23.30;57.30;;;;;;4981233;28;20052;-57
2022/06/14 13:18:29;;;;;;;17.75;2.97;;;23.40;58.50;;;;;;4996917;28;20073;-55
2022/06/14 13:21:09;;;;;;;11.70;2.25;;;23.40;57.90;;;;;;4992832;28;20035;-59
2022/06/14 13:24:03;;;;;;;5.90;1.85;;;23.40;58.60;;;;;;4994324;28;20022;-59
2022/06/14 13:27:19;;;;;;;10.57;2.78;;;23.40;57.20;;;;;;4993886;28;20026;-57
2022/06/14 13:29:59;;;;;;;4.50;1.85;;;23.30;57.40;;;;;;4990461;28;20056;-55
2022/06/14 13:32:55;;;;;;;11.68;2.40;;;23.20;58.30;;;;;;4993043;28;20046;-56
2022/06/14 13:35:32;;;;;;;4.40;1.75;;;23.00;57.20;;;;;;5001972;28;20030;-57
2022/06/14 13:38:08;;;;;;;8.80;2.30;;;22.80;58.70;;;;;;4992244;28;20030;-56
2022/06/14 13:40:53;;;;;;;6.22;2.25;;;22.80;60.50;;;;;;4992462;28;20543;-61
2022/06/14 13:43:41;;;;;;;6.68;1.67;;;22.80;58.90;;;;;;4991190;28;20550;-61
2022/06/14 13:46:34;;;;;;;10.40;2.30;;;22.70;58.40;;;;;;4991215;28;20038;-59
2022/06/14 13:49:26;;;;;;;8.00;1.83;;;22.60;58.00;;;;;;4997816;28;20507;-60
2022/06/14 13:52:08;;;;;;;10.02;2.30;;;22.50;57.90;;;;;;4987023;28;20040;-60
2022/06/14 13:54:43;;;;;;;8.23;2.35;;;22.50;59.60;;;;;;4990345;28;20057;-58
2022/06/14 13:57:51;;;;;;;3.45;1.70;;;22.50;57.20;;;;;;4992532;28;20104;-58
2022/06/14 14:00:24;;;;;;;6.78;1.85;;;22.70;58.00;;;;;;5012052;28;20041;-61
2022/06/14 14:03:27;;;;;;;5.40;2.17;;;22.70;57.10;;;;;;4988994;28;20038;-58
2022/06/14 14:06:06;;;;;;;4.25;2.10;;;22.70;58.70;;;;;;4994335;28;20041;-55
2022/06/14 14:09:06;;;;;;;7.68;1.83;;;22.80;57.20;;;;;;4999282;28;20395;-61